Time;durP1;ratioP1;P1;durP2;ratioP2;P2;SDS_P1;SDS_P2;PMS_P1;PMS_P2;Temp;Humidity;BMP_temperature;BMP_pressure;BME280_temperature;BME280_humidity;BME280_pressure;Samples;Min_cycle;Max_cycle;Signal;HPM_P1;HPM_P2
2023/04/15 00:01:19;;;;;;;29.83;26.47;;;8.40;99.90;;;;;;5069398;28;21309;-83
2023/04/15 00:03:46;;;;;;;30.40;27.02;;;8.50;99.90;;;;;;5066284;28;20374;-82
2023/04/15 00:06:14;;;;;;;33.15;28.50;;;8.40;99.90;;;;;;5068242;28;20461;-81
2023/04/15 00:08:40;;;;;;;37.55;29.20;;;8.40;99.90;;;;;;5067635;28;20374;-82
2023/04/15 00:11:06;;;;;;;34.57;29.70;;;8.40;99.90;;;;;;5068378;28;20386;-82
2023/04/15 00:13:33;;;;;;;32.83;28.03;;;8.40;99.90;;;;;;5074197;28;20384;-81
2023/04/15 00:15:59;;;;;;;33.53;29.10;;;8.50;99.90;;;;;;5066700;28;20390;-82
2023/04/15 00:18:25;;;;;;;36.53;30.90;;;8.50;99.90;;;;;;5067434;28;20423;-83
2023/04/15 00:20:52;;;;;;;37.73;31.57;;;8.50;99.90;;;;;;5070107;28;21053;-82
2023/04/15 00:23:18;;;;;;;37.13;31.23;;;8.50;99.90;;;;;;5065369;28;20378;-83
2023/04/15 00:25:44;;;;;;;37.03;31.13;;;8.50;99.90;;;;;;5069032;28;20389;-82
2023/04/15 00:28:09;;;;;;;38.17;31.95;;;8.40;99.90;;;;;;5068625;28;20733;-81
2023/04/15 00:30:36;;;;;;;38.67;31.98;;;8.40;99.90;;;;;;5068779;28;20521;-81
2023/04/15 00:33:02;;;;;;;37.38;32.22;;;8.40;99.90;;;;;;5069084;28;20424;-82
2023/04/15 00:35:28;;;;;;;37.85;31.30;;;8.50;99.90;;;;;;5069099;28;20472;-82
2023/04/15 00:37:53;;;;;;;37.67;31.17;;;8.50;99.90;;;;;;5068696;28;20493;-81
2023/04/15 00:40:23;;;;;;;39.33;33.25;;;8.50;99.90;;;;;;5067569;28;20919;-82
2023/04/15 00:42:49;;;;;;;41.13;34.43;;;8.50;99.90;;;;;;5067235;28;20394;-83
2023/04/15 00:45:15;;;;;;;42.03;33.80;;;8.40;99.90;;;;;;5068905;28;20404;-82
2023/04/15 00:47:42;;;;;;;43.90;34.27;;;8.50;99.90;;;;;;5067872;28;20366;-82
2023/04/15 00:50:08;;;;;;;43.37;35.47;;;8.60;99.90;;;;;;5067540;28;20374;-83
2023/04/15 00:52:35;;;;;;;38.20;32.53;;;8.50;99.90;;;;;;5067125;28;20451;-83
2023/04/15 00:55:01;;;;;;;40.90;33.30;;;8.60;99.90;;;;;;5067653;28;20389;-83
2023/04/15 00:57:27;;;;;;;42.60;33.90;;;8.60;99.90;;;;;;5067761;28;20937;-83
2023/04/15 00:59:54;;;;;;;43.03;35.75;;;8.50;99.90;;;;;;5067205;28;20381;-83
2023/04/15 01:02:21;;;;;;;40.42;33.38;;;8.60;99.90;;;;;;5067556;28;20378;-83
2023/04/15 01:04:47;;;;;;;42.25;34.10;;;8.60;99.90;;;;;;5067944;28;20392;-82
2023/04/15 01:07:13;;;;;;;45.22;36.33;;;8.60;99.90;;;;;;5067331;28;20370;-83
2023/04/15 01:09:39;;;;;;;45.65;36.30;;;8.60;99.90;;;;;;5067737;28;20381;-81
2023/04/15 01:12:05;;;;;;;47.45;36.42;;;8.60;99.90;;;;;;5067990;28;20397;-82
2023/04/15 01:14:33;;;;;;;46.80;37.33;;;8.50;99.90;;;;;;5068004;28;20378;-82
2023/04/15 01:16:58;;;;;;;45.13;35.92;;;8.50;99.90;;;;;;5068283;28;20463;-83
2023/04/15 01:19:24;;;;;;;42.53;35.07;;;8.60;99.90;;;;;;5068190;28;20378;-82
2023/04/15 01:21:49;;;;;;;44.65;35.92;;;8.60;99.90;;;;;;5069789;28;20377;-83
2023/04/15 01:24:17;;;;;;;47.50;36.95;;;8.60;99.90;;;;;;5080190;28;20380;-82
2023/04/15 01:26:43;;;;;;;47.78;37.75;;;8.60;99.90;;;;;;5083716;28;20446;-82
2023/04/15 01:29:09;;;;;;;48.55;38.47;;;8.60;99.90;;;;;;5078853;28;20417;-81
2023/04/15 01:31:35;;;;;;;49.60;38.13;;;8.50;99.90;;;;;;5067383;28;20880;-82
2023/04/15 01:34:01;;;;;;;50.80;38.22;;;8.50;99.90;;;;;;5068239;28;20378;-82
2023/04/15 01:36:27;;;;;;;51.78;39.92;;;8.50;99.90;;;;;;5065926;28;20398;-82
2023/04/15 01:38:54;;;;;;;49.70;39.22;;;8.50;99.90;;;;;;5067163;28;20749;-82
2023/04/15 01:41:26;;;;;;;51.83;40.40;;;8.50;99.90;;;;;;5067374;28;20382;-82
2023/04/15 01:43:53;;;;;;;51.22;39.38;;;8.50;99.90;;;;;;5067781;28;20412;-82
2023/04/15 01:46:18;;;;;;;55.10;40.55;;;8.50;99.90;;;;;;5065978;28;20478;-82
2023/04/15 01:48:44;;;;;;;53.85;41.45;;;8.40;99.90;;;;;;5064514;28;20894;-82
2023/04/15 01:51:10;;;;;;;52.42;39.47;;;8.50;99.90;;;;;;5069445;28;20386;-83
2023/04/15 01:53:36;;;;;;;55.53;41.35;;;8.60;99.90;;;;;;5060514;28;20754;-82
2023/04/15 01:56:02;;;;;;;57.22;42.10;;;8.60;99.90;;;;;;5065636;28;20390;-82
2023/04/15 01:58:27;;;;;;;60.67;43.80;;;8.50;99.90;;;;;;5065367;28;20745;-81
2023/04/15 02:00:53;;;;;;;56.20;42.33;;;8.50;99.90;;;;;;5063120;28;20954;-82
2023/04/15 02:03:18;;;;;;;58.38;42.83;;;8.60;99.90;;;;;;5064584;28;20378;-82
2023/04/15 02:05:44;;;;;;;57.93;43.33;;;8.50;99.90;;;;;;5058049;28;21016;-82
2023/04/15 02:08:10;;;;;;;59.95;43.00;;;8.50;99.90;;;;;;5059444;28;20511;-82
2023/04/15 02:10:35;;;;;;;59.72;43.80;;;8.50;99.90;;;;;;5061781;28;20900;-82
2023/04/15 02:13:01;;;;;;;62.83;45.80;;;8.50;99.90;;;;;;5085944;28;20384;-81
2023/04/15 02:15:27;;;;;;;58.10;43.90;;;8.50;99.90;;;;;;5082749;28;20465;-81
2023/04/15 02:17:54;;;;;;;62.70;45.50;;;8.50;99.90;;;;;;5076080;28;20406;-82
2023/04/15 02:20:20;;;;;;;62.97;45.15;;;8.50;99.90;;;;;;5089649;28;20399;-82
2023/04/15 02:22:47;;;;;;;62.70;45.38;;;8.40;99.90;;;;;;5089936;28;20374;-82
2023/04/15 02:25:13;;;;;;;63.45;45.88;;;8.40;99.90;;;;;;5089950;28;20389;-83
2023/04/15 02:27:38;;;;;;;62.65;46.30;;;8.50;99.90;;;;;;5084204;28;20372;-82
2023/04/15 02:30:06;;;;;;;66.97;46.95;;;8.50;99.90;;;;;;5088160;28;20364;-82
2023/04/15 02:32:31;;;;;;;70.22;49.15;;;8.50;99.90;;;;;;5090020;28;20399;-82
2023/04/15 02:35:02;;;;;;;63.47;45.80;;;8.50;99.90;;;;;;5081831;28;20374;-82
2023/04/15 02:37:29;;;;;;;62.88;46.40;;;8.50;99.90;;;;;;5071038;28;20412;-82
2023/04/15 02:39:55;;;;;;;71.32;48.83;;;8.60;99.90;;;;;;5070645;28;20435;-82
2023/04/15 02:42:20;;;;;;;70.50;48.22;;;8.50;99.90;;;;;;5070789;28;20378;-82
2023/04/15 02:44:46;;;;;;;60.73;45.17;;;8.60;99.90;;;;;;5070689;28;20748;-82
2023/04/15 02:47:11;;;;;;;67.13;47.17;;;8.70;99.90;;;;;;5070779;28;20402;-82
2023/04/15 02:49:37;;;;;;;69.82;48.38;;;8.50;99.90;;;;;;5070109;28;20937;-82
2023/04/15 02:52:03;;;;;;;68.65;47.97;;;8.50;99.90;;;;;;5068219;28;20374;-82
2023/04/15 02:54:29;;;;;;;68.07;46.87;;;8.50;99.90;;;;;;5070326;28;20453;-81
2023/04/15 02:56:55;;;;;;;67.88;47.47;;;8.60;99.90;;;;;;5070570;28;20397;-81
2023/04/15 02:59:21;;;;;;;65.75;47.05;;;8.50;99.90;;;;;;5070092;28;20402;-81
2023/04/15 03:01:46;;;;;;;67.75;47.63;;;8.50;99.90;;;;;;5070187;28;20409;-82
2023/04/15 03:04:13;;;;;;;68.47;48.90;;;8.50;99.90;;;;;;5075579;28;20371;-82
2023/04/15 03:06:38;;;;;;;68.55;48.22;;;8.50;99.90;;;;;;5317372;22;20518;-81
2023/04/15 03:09:04;;;;;;;73.47;49.65;;;8.60;99.90;;;;;;5045578;28;20834;-82
2023/04/15 03:11:32;;;;;;;70.30;50.30;;;8.50;99.90;;;;;;5050204;28;20388;-82
2023/04/15 03:13:57;;;;;;;72.97;50.67;;;8.40;99.90;;;;;;5049887;28;20422;-82
2023/04/15 03:16:24;;;;;;;71.40;50.43;;;8.50;99.90;;;;;;5050251;28;21033;-81
2023/04/15 03:18:50;;;;;;;68.78;48.78;;;8.40;99.90;;;;;;5050282;28;20388;-81
2023/04/15 03:21:15;;;;;;;67.95;49.45;;;8.40;99.90;;;;;;5050248;28;20395;-82
2023/04/15 03:23:41;;;;;;;70.83;50.07;;;8.40;99.90;;;;;;5050422;28;20396;-82
2023/04/15 03:26:06;;;;;;;68.43;48.58;;;8.40;99.90;;;;;;5057791;28;20482;-82
2023/04/15 03:28:32;;;;;;;68.50;48.67;;;8.50;99.90;;;;;;5070703;28;20431;-82
2023/04/15 03:30:58;;;;;;;67.88;49.00;;;8.50;99.90;;;;;;5056825;28;20398;-82
2023/04/15 03:33:24;;;;;;;65.90;48.65;;;8.50;99.90;;;;;;5050516;28;20937;-82
2023/04/15 03:35:50;;;;;;;71.07;48.72;;;8.50;99.90;;;;;;5050762;28;20390;-82
2023/04/15 03:38:16;;;;;;;68.67;48.10;;;8.50;99.90;;;;;;5050726;28;20403;-82
2023/04/15 03:40:42;;;;;;;64.90;47.03;;;8.50;99.90;;;;;;5050865;28;20380;-82
2023/04/15 03:43:08;;;;;;;69.20;47.47;;;8.60;99.90;;;;;;5053921;28;20407;-82
2023/04/15 03:45:34;;;;;;;65.60;47.95;;;8.60;99.90;;;;;;5049975;28;20436;-82
2023/04/15 03:48:00;;;;;;;64.95;46.72;;;8.60;99.90;;;;;;5050424;28;20387;-81
2023/04/15 03:50:26;;;;;;;64.65;46.30;;;8.60;99.90;;;;;;5050475;28;20372;-82
2023/04/15 03:52:52;;;;;;;63.75;46.22;;;8.70;99.90;;;;;;5045680;28;20511;-82
2023/04/15 03:55:18;;;;;;;64.65;47.40;;;8.70;99.90;;;;;;5039227;28;20448;-82
2023/04/15 03:57:44;;;;;;;70.20;48.58;;;8.60;99.90;;;;;;5042953;28;20547;-82
2023/04/15 04:00:10;;;;;;;66.35;47.35;;;8.60;99.90;;;;;;5048676;28;20959;-82
2023/04/15 04:02:35;;;;;;;66.45;47.50;;;8.60;99.90;;;;;;5049410;28;20749;-82
2023/04/15 04:05:01;;;;;;;73.45;49.55;;;8.60;99.90;;;;;;5049467;28;20364;-81
2023/04/15 04:07:27;;;;;;;64.67;46.60;;;8.50;99.90;;;;;;5050173;28;20375;-82
2023/04/15 04:09:52;;;;;;;62.25;45.88;;;8.60;99.90;;;;;;5048132;28;20419;-82
2023/04/15 04:12:18;;;;;;;65.20;47.00;;;8.60;99.90;;;;;;5047679;28;21019;-82
2023/04/15 04:14:43;;;;;;;64.15;46.15;;;8.60;99.90;;;;;;5049111;28;20531;-82
2023/04/15 04:17:09;;;;;;;68.53;47.00;;;8.60;99.90;;;;;;5047095;28;20411;-82
2023/04/15 04:19:34;;;;;;;68.10;48.00;;;8.60;99.90;;;;;;5048862;28;20437;-81
2023/04/15 04:22:00;;;;;;;65.63;48.30;;;8.50;99.90;;;;;;5049267;28;20801;-81
2023/04/15 04:24:26;;;;;;;62.77;46.40;;;8.60;99.90;;;;;;5049263;28;20462;-82
2023/04/15 04:26:51;;;;;;;63.77;45.67;;;8.60;99.90;;;;;;5048467;28;20435;-82
2023/04/15 04:29:17;;;;;;;58.53;44.17;;;8.60;99.90;;;;;;5047920;28;20406;-82
2023/04/15 04:31:42;;;;;;;62.90;46.37;;;8.60;99.90;;;;;;5048140;28;21588;-82
2023/04/15 04:34:08;;;;;;;65.20;46.72;;;8.60;99.90;;;;;;5048365;28;20840;-82
2023/04/15 04:36:33;;;;;;;61.63;45.87;;;8.60;99.90;;;;;;5047410;28;20404;-82
2023/04/15 04:39:00;;;;;;;58.60;44.42;;;8.70;99.90;;;;;;5048362;28;20388;-81
2023/04/15 04:41:25;;;;;;;60.90;44.60;;;8.80;99.90;;;;;;5045198;28;20446;-81
2023/04/15 04:43:51;;;;;;;60.78;44.10;;;8.70;99.90;;;;;;5048139;28;20419;-81
2023/04/15 04:46:16;;;;;;;60.47;44.03;;;8.80;99.90;;;;;;5048372;28;20396;-81
2023/04/15 04:48:42;;;;;;;58.78;44.08;;;8.70;99.90;;;;;;5048459;28;20376;-81
2023/04/15 04:51:08;;;;;;;60.60;45.17;;;8.80;99.90;;;;;;5048139;28;20494;-81
2023/04/15 04:53:34;;;;;;;60.20;44.40;;;8.80;99.90;;;;;;5050269;28;20397;-81
2023/04/15 04:55:59;;;;;;;56.60;43.10;;;8.70;99.90;;;;;;5068578;28;20439;-80
2023/04/15 04:58:25;;;;;;;55.95;41.45;;;8.70;99.90;;;;;;5059172;28;20380;-80
2023/04/15 05:00:53;;;;;;;59.30;44.47;;;8.80;99.90;;;;;;5050143;28;20367;-81
2023/04/15 05:03:19;;;;;;;56.20;42.80;;;8.70;99.90;;;;;;5054362;28;20734;-80
2023/04/15 05:05:44;;;;;;;54.20;40.83;;;8.80;99.90;;;;;;5050690;28;20885;-81
2023/04/15 05:08:10;;;;;;;53.38;41.22;;;8.90;99.90;;;;;;5048673;28;20390;-80
2023/04/15 05:10:35;;;;;;;51.60;39.40;;;8.90;99.90;;;;;;5038776;28;20762;-81
2023/04/15 05:13:01;;;;;;;52.07;41.67;;;8.80;99.90;;;;;;5048038;28;20454;-81
2023/04/15 05:15:27;;;;;;;54.00;41.17;;;8.80;99.90;;;;;;5048233;28;20395;-81
2023/04/15 05:17:52;;;;;;;51.30;40.50;;;8.80;99.90;;;;;;5050026;28;20422;-80
2023/04/15 05:20:18;;;;;;;49.77;40.03;;;8.80;99.90;;;;;;5062298;28;20929;-80
2023/04/15 05:22:49;;;;;;;51.60;41.03;;;8.80;99.90;;;;;;5048809;28;20406;-79
2023/04/15 05:25:15;;;;;;;50.20;39.58;;;8.80;99.90;;;;;;5053235;28;20392;-79
2023/04/15 05:27:41;;;;;;;48.78;38.65;;;8.80;99.90;;;;;;5057553;28;20386;-79
2023/04/15 05:30:07;;;;;;;47.90;36.93;;;8.90;99.90;;;;;;5063456;28;20407;-80
2023/04/15 05:32:33;;;;;;;47.65;38.03;;;9.00;99.90;;;;;;5062685;28;20422;-80
2023/04/15 05:34:59;;;;;;;44.55;36.78;;;8.90;99.90;;;;;;5061345;28;20396;-80
2023/04/15 05:37:25;;;;;;;48.35;38.35;;;8.80;99.90;;;;;;5059159;28;20906;-79
2023/04/15 05:39:50;;;;;;;48.60;38.10;;;8.80;99.90;;;;;;5060630;28;20422;-79
2023/04/15 05:42:16;;;;;;;48.00;36.60;;;8.80;99.90;;;;;;5058747;28;20396;-79
2023/04/15 05:44:42;;;;;;;40.13;34.13;;;8.90;99.90;;;;;;5052076;28;20773;-81
2023/04/15 05:47:08;;;;;;;41.30;34.80;;;9.00;99.90;;;;;;5043792;28;20423;-81
2023/04/15 05:49:34;;;;;;;43.23;34.37;;;9.00;99.90;;;;;;5028309;28;20966;-79
2023/04/15 05:52:00;;;;;;;39.50;33.57;;;9.00;99.90;;;;;;5039014;28;20411;-80
2023/04/15 05:54:26;;;;;;;37.63;32.95;;;9.00;99.90;;;;;;5048079;28;20488;-80
2023/04/15 05:56:52;;;;;;;40.03;32.80;;;9.00;99.90;;;;;;5046682;28;20503;-79
2023/04/15 05:59:18;;;;;;;37.20;31.27;;;9.10;99.90;;;;;;5046975;28;20457;-80
2023/04/15 06:01:44;;;;;;;38.77;33.23;;;9.10;99.90;;;;;;5047659;28;20878;-80
2023/04/15 06:04:10;;;;;;;39.80;32.28;;;9.10;99.90;;;;;;5047180;28;20380;-80
2023/04/15 06:06:36;;;;;;;38.85;32.30;;;9.00;99.90;;;;;;5050277;28;20750;-80
2023/04/15 06:09:01;;;;;;;35.85;31.85;;;9.10;99.90;;;;;;5049768;28;20421;-81
2023/04/15 06:11:27;;;;;;;37.17;31.73;;;9.20;99.90;;;;;;5051731;28;20399;-80
2023/04/15 06:13:52;;;;;;;38.10;32.07;;;9.20;99.90;;;;;;5051582;28;20406;-80
2023/04/15 06:16:18;;;;;;;34.03;30.33;;;9.40;99.90;;;;;;5051570;28;20399;-81
2023/04/15 06:18:43;;;;;;;32.97;28.47;;;9.50;99.90;;;;;;5062811;28;20370;-81
2023/04/15 06:21:09;;;;;;;31.50;28.20;;;9.60;99.90;;;;;;5071201;28;20416;-80
2023/04/15 06:23:35;;;;;;;31.40;28.00;;;9.70;99.90;;;;;;5051816;28;20411;-80
2023/04/15 06:26:01;;;;;;;31.35;27.95;;;9.60;99.90;;;;;;5049848;28;20411;-81
2023/04/15 06:28:27;;;;;;;29.42;26.27;;;9.60;99.90;;;;;;5049662;28;20708;-81
2023/04/15 06:30:53;;;;;;;28.90;25.65;;;9.70;99.90;;;;;;5051191;28;20387;-81
2023/04/15 06:33:19;;;;;;;29.15;25.17;;;9.80;99.90;;;;;;5050162;28;21189;-81
2023/04/15 06:35:45;;;;;;;26.98;24.17;;;10.00;99.90;;;;;;5070111;28;20401;-81
2023/04/15 06:38:10;;;;;;;25.97;23.17;;;10.10;99.90;;;;;;5070289;28;20491;-80
2023/04/15 06:40:36;;;;;;;25.92;22.70;;;10.30;99.90;;;;;;5071257;28;20385;-81
2023/04/15 06:43:03;;;;;;;24.77;22.27;;;10.30;99.90;;;;;;5069776;28;20732;-81
2023/04/15 06:45:29;;;;;;;24.90;22.30;;;10.30;99.90;;;;;;5071721;28;20373;-81
2023/04/15 06:47:54;;;;;;;24.57;21.90;;;10.30;99.90;;;;;;5071428;28;20465;-81
2023/04/15 06:50:20;;;;;;;25.55;22.10;;;10.20;99.90;;;;;;5057744;28;20392;-82
2023/04/15 06:52:45;;;;;;;26.10;22.27;;;10.20;99.90;;;;;;5051268;28;20386;-82
2023/04/15 06:55:11;;;;;;;22.88;20.58;;;10.30;99.90;;;;;;5049820;28;20388;-82
2023/04/15 06:57:37;;;;;;;21.20;18.97;;;10.50;99.90;;;;;;5052583;28;21000;-81
2023/04/15 07:00:04;;;;;;;21.70;19.40;;;10.60;99.90;;;;;;5067121;28;20452;-81
2023/04/15 07:02:30;;;;;;;21.55;18.60;;;10.60;99.90;;;;;;5061812;28;20495;-81
2023/04/15 07:04:55;;;;;;;20.85;18.75;;;10.70;99.90;;;;;;5057029;28;20732;-82
2023/04/15 07:07:21;;;;;;;20.70;18.47;;;11.00;99.90;;;;;;5049835;28;20734;-82
2023/04/15 07:09:47;;;;;;;19.83;17.77;;;10.80;99.90;;;;;;5050289;28;20402;-81
2023/04/15 07:12:12;;;;;;;19.70;17.63;;;10.70;99.90;;;;;;5067714;28;20408;-82
2023/04/15 07:14:38;;;;;;;18.70;16.90;;;11.00;99.90;;;;;;5056511;28;20398;-81
2023/04/15 07:17:03;;;;;;;21.20;17.10;;;11.10;99.90;;;;;;5049413;28;20877;-81
2023/04/15 07:19:29;;;;;;;17.27;15.47;;;11.30;99.90;;;;;;5049594;28;20403;-81
2023/04/15 07:21:54;;;;;;;16.98;15.27;;;11.70;99.90;;;;;;5049934;28;20452;-82
2023/04/15 07:24:22;;;;;;;16.67;14.90;;;12.00;99.90;;;;;;5049645;28;20396;-82
2023/04/15 07:26:47;;;;;;;16.00;14.40;;;12.20;99.90;;;;;;5067293;28;20476;-81
2023/04/15 07:29:13;;;;;;;16.33;14.52;;;12.10;99.90;;;;;;5067856;28;20782;-81
2023/04/15 07:31:41;;;;;;;21.00;16.67;;;11.80;99.90;;;;;;5050471;28;20379;-81
2023/04/15 07:34:06;;;;;;;19.52;16.15;;;11.60;99.90;;;;;;5049097;28;20749;-82
2023/04/15 07:36:32;;;;;;;17.02;15.32;;;11.30;99.90;;;;;;5061579;28;20400;-81
2023/04/15 07:38:58;;;;;;;18.80;16.40;;;11.30;99.90;;;;;;5049207;28;20387;-81
2023/04/15 07:41:24;;;;;;;18.63;16.83;;;11.10;99.90;;;;;;5051470;28;20394;-81
2023/04/15 07:43:50;;;;;;;18.75;16.90;;;10.90;99.90;;;;;;5070697;28;20411;-81
2023/04/15 07:46:15;;;;;;;18.13;16.13;;;10.80;99.90;;;;;;5070773;28;20405;-81
2023/04/15 07:48:41;;;;;;;19.02;17.13;;;11.00;99.90;;;;;;5069440;28;20371;-82
2023/04/15 07:51:07;;;;;;;17.35;15.55;;;11.10;99.90;;;;;;5070881;28;21009;-83
2023/04/15 07:53:34;;;;;;;17.83;16.13;;;11.10;99.90;;;;;;5070538;28;20771;-81
2023/04/15 07:56:01;;;;;;;17.92;16.10;;;11.10;99.90;;;;;;5071095;28;20441;-82
2023/04/15 07:58:26;;;;;;;18.23;16.40;;;11.10;99.90;;;;;;5057538;28;20439;-82
2023/04/15 08:00:54;;;;;;;19.55;17.50;;;11.10;99.90;;;;;;5048744;28;20422;-79
2023/04/15 08:03:21;;;;;;;18.80;16.80;;;10.80;99.90;;;;;;5047977;28;20384;-80
2023/04/15 08:05:49;;;;;;;18.17;16.27;;;10.80;99.90;;;;;;5047865;28;20384;-80
2023/04/15 08:08:15;;;;;;;18.17;16.38;;;10.90;99.90;;;;;;5048468;28;20380;-80
2023/04/15 08:10:41;;;;;;;18.52;16.63;;;10.80;99.90;;;;;;5048577;28;20449;-79
2023/04/15 08:13:06;;;;;;;18.10;16.15;;;10.70;99.90;;;;;;5047124;28;20388;-80
2023/04/15 08:15:32;;;;;;;18.43;16.53;;;10.80;99.90;;;;;;5049344;28;20387;-79
2023/04/15 08:17:59;;;;;;;19.47;17.47;;;10.80;99.90;;;;;;5053019;28;20898;-81
2023/04/15 08:20:25;;;;;;;18.73;16.88;;;10.60;99.90;;;;;;5069745;28;20383;-80
2023/04/15 08:22:51;;;;;;;20.38;16.40;;;10.70;99.90;;;;;;5069086;28;20895;-81
2023/04/15 08:25:18;;;;;;;18.05;16.27;;;11.00;99.90;;;;;;5069869;28;20382;-80
2023/04/15 08:27:44;;;;;;;17.33;15.73;;;11.10;99.90;;;;;;5064109;28;20886;-81
2023/04/15 08:30:10;;;;;;;17.60;15.70;;;11.00;99.90;;;;;;5048793;28;20909;-83
2023/04/15 08:32:36;;;;;;;18.45;16.60;;;11.20;99.90;;;;;;5048646;28;20396;-81
2023/04/15 08:35:03;;;;;;;17.60;15.90;;;11.10;99.90;;;;;;5049549;28;20399;-80
2023/04/15 08:37:29;;;;;;;17.60;15.82;;;11.20;99.90;;;;;;5049754;28;20400;-81
2023/04/15 08:39:55;;;;;;;16.67;14.90;;;11.30;99.90;;;;;;5054553;28;20712;-82
2023/04/15 08:42:26;;;;;;;18.02;14.80;;;11.50;99.90;;;;;;5054966;28;20422;-82
2023/04/15 08:44:54;;;;;;;16.70;15.00;;;11.40;99.90;;;;;;5051063;28;20400;-82
2023/04/15 08:47:22;;;;;;;17.88;16.13;;;11.50;99.90;;;;;;5050288;28;20380;-82
2023/04/15 08:49:52;;;;;;;17.95;16.05;;;11.20;99.90;;;;;;5048240;28;20420;-84
2023/04/15 08:52:19;;;;;;;21.10;17.38;;;11.00;99.90;;;;;;5061905;28;20492;-80
2023/04/15 08:54:45;;;;;;;18.40;16.50;;;10.90;99.90;;;;;;5037538;28;20414;-80
2023/04/15 08:57:11;;;;;;;19.42;16.98;;;10.80;99.90;;;;;;5054284;28;20447;-81
2023/04/15 08:59:37;;;;;;;18.05;16.25;;;11.00;99.90;;;;;;5047494;28;20870;-80
2023/04/15 09:02:04;;;;;;;18.92;17.02;;;11.00;99.90;;;;;;5056791;28;20382;-81
2023/04/15 09:04:30;;;;;;;17.83;16.05;;;11.10;99.90;;;;;;5067724;28;20370;-81
2023/04/15 09:06:57;;;;;;;16.63;15.02;;;11.00;99.90;;;;;;5055647;28;20403;-80
2023/04/15 09:09:22;;;;;;;17.60;15.70;;;11.20;99.90;;;;;;5043917;28;20391;-80
2023/04/15 09:11:50;;;;;;;19.27;17.03;;;11.10;99.90;;;;;;5060123;28;20380;-80
2023/04/15 09:14:16;;;;;;;18.37;16.50;;;10.90;99.90;;;;;;5063522;28;20363;-79
2023/04/15 09:17:02;;;;;;;17.47;15.73;;;11.00;99.90;;;;;;5062155;28;20423;-81
2023/04/15 09:19:28;;;;;;;17.42;15.65;;;11.10;99.90;;;;;;5081662;28;20398;-81
2023/04/15 09:21:58;;;;;;;17.53;15.83;;;11.30;99.90;;;;;;5059994;28;20376;-81
2023/04/15 09:24:25;;;;;;;17.07;15.30;;;11.30;99.90;;;;;;5048759;28;20888;-81
2023/04/15 09:26:54;;;;;;;19.45;15.40;;;11.50;99.90;;;;;;5048655;28;20413;-81
2023/04/15 09:29:23;;;;;;;17.15;15.38;;;11.50;99.90;;;;;;5048349;28;20387;-81
2023/04/15 09:31:49;;;;;;;16.67;14.90;;;11.60;99.90;;;;;;5048034;28;20857;-81
2023/04/15 09:34:15;;;;;;;17.05;15.35;;;11.60;99.90;;;;;;5047730;28;20376;-81
2023/04/15 09:36:47;;;;;;;16.67;15.07;;;11.70;99.90;;;;;;5046826;28;20987;-81
2023/04/15 09:39:13;;;;;;;17.17;15.48;;;11.60;99.90;;;;;;5047690;28;20896;-81
2023/04/15 09:41:44;;;;;;;16.15;14.65;;;11.70;99.90;;;;;;5049056;28;20413;-80
2023/04/15 09:44:23;;;;;;;17.23;15.52;;;11.70;99.90;;;;;;5049445;28;20753;-81
2023/04/15 09:46:49;;;;;;;17.63;15.82;;;11.70;99.90;;;;;;5047563;28;20738;-81
2023/04/15 09:49:16;;;;;;;35.72;20.48;;;11.60;99.90;;;;;;5048953;28;20379;-80
2023/04/15 09:51:43;;;;;;;20.92;16.20;;;11.40;99.90;;;;;;5047503;28;20379;-82
2023/04/15 09:54:08;;;;;;;25.25;18.00;;;11.50;99.90;;;;;;5048270;28;20407;-84
2023/04/15 09:56:37;;;;;;;22.67;16.93;;;11.40;99.90;;;;;;5047175;28;20435;-83
2023/04/15 09:59:04;;;;;;;34.90;20.38;;;11.40;99.90;;;;;;5048298;28;20445;-83
2023/04/15 10:01:30;;;;;;;21.65;16.55;;;11.40;99.90;;;;;;5049218;28;20482;-83
2023/04/15 10:03:58;;;;;;;18.05;15.32;;;11.30;99.90;;;;;;5048743;28;21257;-83
2023/04/15 10:06:25;;;;;;;17.02;15.32;;;11.40;99.90;;;;;;5048510;28;20466;-82
2023/04/15 10:08:51;;;;;;;17.85;15.80;;;11.40;99.90;;;;;;5048740;28;20382;-81
2023/04/15 10:11:18;;;;;;;16.42;14.73;;;11.50;99.90;;;;;;5047096;28;20735;-81
2023/04/15 10:13:45;;;;;;;16.80;15.05;;;11.40;99.90;;;;;;5047091;28;20403;-81
2023/04/15 10:16:15;;;;;;;17.08;15.35;;;11.30;99.90;;;;;;5046697;28;20750;-81
2023/04/15 10:18:47;;;;;;;18.30;16.42;;;11.30;99.90;;;;;;5047395;28;20457;-82
2023/04/15 10:21:17;;;;;;;19.17;16.00;;;11.40;99.90;;;;;;5028107;28;20386;-81
2023/04/15 10:23:44;;;;;;;25.60;17.13;;;11.30;99.90;;;;;;5033321;28;20400;-81
2023/04/15 10:26:13;;;;;;;18.25;16.52;;;11.30;99.90;;;;;;5048398;28;20435;-81
2023/04/15 10:28:39;;;;;;;18.10;16.20;;;11.30;99.90;;;;;;5041311;28;20897;-82
2023/04/15 10:31:06;;;;;;;17.33;15.63;;;11.40;99.90;;;;;;5033013;28;20434;-81
2023/04/15 10:33:32;;;;;;;17.63;15.95;;;11.40;99.90;;;;;;5047226;28;20391;-82
2023/04/15 10:35:59;;;;;;;18.67;16.67;;;11.50;99.90;;;;;;5049088;28;20384;-80
2023/04/15 10:38:33;;;;;;;17.27;15.68;;;11.50;99.90;;;;;;5045231;28;20403;-80
2023/04/15 10:41:28;;;;;;;16.93;15.27;;;11.60;99.90;;;;;;5043109;28;20436;-81
2023/04/15 10:44:04;;;;;;;18.33;16.48;;;11.40;99.90;;;;;;5042337;28;20392;-80
2023/04/15 10:46:40;;;;;;;17.60;15.95;;;11.40;99.90;;;;;;5045202;28;20434;-80
2023/04/15 10:49:23;;;;;;;18.10;16.27;;;11.30;99.90;;;;;;5045505;28;21055;-81
2023/04/15 10:51:56;;;;;;;17.13;15.40;;;11.50;99.90;;;;;;5039494;28;20966;-82
2023/04/15 10:54:25;;;;;;;17.20;15.50;;;11.50;99.90;;;;;;5048364;28;20380;-80
2023/04/15 10:57:06;;;;;;;17.80;16.00;;;11.60;99.90;;;;;;5049645;28;20442;-80
2023/04/15 10:59:32;;;;;;;18.60;16.75;;;11.60;99.90;;;;;;5047136;28;20445;-81
2023/04/15 11:02:04;;;;;;;17.48;15.77;;;11.50;99.90;;;;;;5049780;28;20411;-79
2023/04/15 11:04:53;;;;;;;17.30;15.70;;;11.50;99.90;;;;;;5050811;28;20829;-81
2023/04/15 11:07:38;;;;;;;17.75;16.10;;;11.60;99.90;;;;;;5050438;28;20406;-80
2023/04/15 11:10:30;;;;;;;18.67;16.92;;;11.40;99.90;;;;;;5050786;28;20445;-81
2023/04/15 11:13:00;;;;;;;17.90;16.00;;;11.40;99.90;;;;;;5023031;28;20388;-81
2023/04/15 11:15:25;;;;;;;19.02;17.13;;;11.40;99.90;;;;;;5051022;28;20387;-80
2023/04/15 11:17:52;;;;;;;18.77;16.87;;;11.40;99.90;;;;;;5050453;28;20400;-80
2023/04/15 11:20:18;;;;;;;17.67;15.77;;;11.60;99.90;;;;;;5050269;28;20902;-80
2023/04/15 11:22:49;;;;;;;19.42;17.40;;;11.70;99.90;;;;;;5049152;28;20408;-81
2023/04/15 11:25:36;;;;;;;20.48;17.38;;;11.70;99.90;;;;;;5070266;28;20731;-80
2023/04/15 11:28:06;;;;;;;18.88;17.10;;;11.70;99.90;;;;;;5061427;28;20403;-80
2023/04/15 11:30:37;;;;;;;20.38;18.38;;;11.70;99.90;;;;;;5050443;28;20901;-80
2023/04/15 11:33:08;;;;;;;19.15;17.15;;;11.60;99.90;;;;;;5050788;28;20394;-80
2023/04/15 11:35:41;;;;;;;20.40;18.30;;;11.60;99.90;;;;;;5050883;28;20396;-81
2023/04/15 11:38:20;;;;;;;20.10;17.92;;;11.50;99.90;;;;;;5049176;28;20415;-79
2023/04/15 11:40:46;;;;;;;18.90;17.00;;;11.50;99.90;;;;;;5051117;28;20419;-81
2023/04/15 11:43:15;;;;;;;20.35;18.27;;;11.50;99.90;;;;;;5050865;28;20414;-82
2023/04/15 11:45:58;;;;;;;19.25;17.42;;;11.40;99.90;;;;;;5052469;28;20376;-81
2023/04/15 11:48:29;;;;;;;22.60;20.30;;;11.40;99.90;;;;;;5049442;28;20399;-80
2023/04/15 11:50:58;;;;;;;21.27;19.17;;;11.40;99.90;;;;;;5048426;28;20391;-79
2023/04/15 11:53:38;;;;;;;22.70;20.55;;;11.20;99.90;;;;;;5048641;28;20376;-80
2023/04/15 11:56:04;;;;;;;21.88;19.67;;;11.20;99.90;;;;;;5050601;28;20454;-81
2023/04/15 11:58:30;;;;;;;22.33;20.13;;;11.30;99.90;;;;;;5047387;28;20460;-80
2023/04/15 12:01:01;;;;;;;21.77;19.67;;;11.40;99.90;;;;;;5052907;28;20379;-82
2023/04/15 12:03:39;;;;;;;21.58;19.55;;;11.40;99.90;;;;;;5062557;28;20384;-80
2023/04/15 12:06:10;;;;;;;23.45;21.05;;;11.50;99.90;;;;;;5061205;28;20475;-84
2023/04/15 12:08:54;;;;;;;23.75;21.40;;;11.30;99.90;;;;;;5051484;28;20408;-80
2023/04/15 12:11:28;;;;;;;22.88;20.58;;;11.30;99.90;;;;;;5053230;28;20487;-80
2023/04/15 12:14:05;;;;;;;23.98;21.58;;;11.30;99.90;;;;;;5059904;28;20382;-78
2023/04/15 12:16:37;;;;;;;24.15;21.85;;;11.30;99.90;;;;;;5053277;28;20426;-78
2023/04/15 12:19:11;;;;;;;24.83;22.23;;;11.30;99.90;;;;;;5049358;28;20387;-79
2023/04/15 12:21:38;;;;;;;24.27;21.83;;;11.30;99.90;;;;;;5047581;28;20368;-79
2023/04/15 12:24:06;;;;;;;25.37;22.87;;;11.30;99.90;;;;;;5049281;28;20402;-79
2023/04/15 12:26:56;;;;;;;25.58;22.42;;;11.40;99.90;;;;;;5048653;28;20387;-79
2023/04/15 12:29:27;;;;;;;25.30;22.80;;;11.30;99.90;;;;;;5048690;28;20911;-78
2023/04/15 12:32:02;;;;;;;26.33;23.73;;;11.10;99.90;;;;;;5048268;28;20498;-79
2023/04/15 12:34:30;;;;;;;24.73;22.33;;;11.10;99.90;;;;;;5046013;28;20488;-80